Thursday, October 19, 2017, 2:02 PM EDT

KNHK, Nas Patuxent River Md

Location: Patuxent River, MD, United States Lat: 38.3
Local Time: 2:02 PM EDT (18:02 GMT) Lon: -76.4
Time Zone: US/Eastern Elev: 39 ft

Show me the last for .
Show Decoded

2017-10-19 13:52 METAR KNHK 191752Z 20005KT 10SM CLR 21/08 A3022 RMK AO2 SLP232 T02110083 10217
                 20100 58025 =
2017-10-19 12:52 METAR KNHK 191652Z 21007KT 180V250 10SM FEW260 21/09 A3025 RMK AO2 SLP243
                 T02060094 =
2017-10-19 11:52 METAR KNHK 191552Z 24007KT 10SM FEW260 19/10 A3028 RMK AO2 SLP252 T01940100 =
2017-10-19 10:52 METAR KNHK 191452Z 21006KT 10SM FEW260 18/11 A3029 RMK AO2 SLP257 T01830111
                 50003 =
2017-10-19 09:52 METAR KNHK 191352Z 23006KT 10SM FEW260 16/12 A3030 RMK AO2 SLP259 T01610122 =
2017-10-19 08:52 METAR KNHK 191252Z COR 23005KT 10SM FEW140 FEW260 14/12 A3029 RMK AO2 SLP256
                 T01390117 =
2017-10-19 07:52 METAR KNHK 191152Z 22005KT 10SM FEW140 SCT260 11/11 A3028 RMK AO2 SLP254
                 T01110106 10128 20067 50000 =
2017-10-19 06:52 METAR KNHK 191052Z 23003KT 10SM SCT260 07/07 A3028 RMK AO2 SLP254 T00720072 =
2017-10-19 05:52 METAR KNHK 190952Z 22004KT 10SM FEW260 10/09 A3028 RMK AO2 SLP254 T01000089 =
2017-10-19 04:52 METAR KNHK 190852Z AUTO 23006KT 10SM CLR 12/10 A3028 RMK AO2 SLP253 T01220100
                 56008 =
2017-10-19 03:52 METAR KNHK 190752Z AUTO 20006KT 10SM CLR 11/09 A3028 RMK AO2 SLP254 T01110094 =
2017-10-19 02:52 METAR KNHK 190652Z AUTO 21005KT 10SM CLR 12/10 A3029 RMK AO2 SLP257 T01220100 =
2017-10-19 01:52 METAR KNHK 190552Z AUTO 22007KT 10SM CLR 12/09 A3030 RMK AO2 SLP262 T01220094
                 10139 20067 58005 =
2017-10-19 00:52 METAR KNHK 190452Z AUTO 21005KT 10SM CLR 11/08 A3031 RMK AO2 SLP265 T01060083
                 402060039 =
2017-10-18 23:52 METAR KNHK 190352Z AUTO 21003KT 10SM CLR 08/07 A3032 RMK AO2 SLP267 T00780067 =
2017-10-18 22:52 METAR KNHK 190252Z VRB03KT 10SM FEW250 08/07 A3032 RMK AO2 SLP267 T00830072
                 50002 =
2017-10-18 21:52 METAR KNHK 190152Z 00000KT 10SM FEW250 12/08 A3033 RMK AO2 SLP269 T01170078 =
2017-10-18 20:52 METAR KNHK 190052Z 20006KT 10SM FEW250 14/08 A3032 RMK AO2 SLP268 T01390078 =
2017-10-18 19:52 METAR KNHK 182352Z 19005KT 10SM FEW250 14/07 A3031 RMK AO2 SLP265 T01390072
                 10206 20139 56002 =
2017-10-18 18:52 METAR KNHK 182252Z 18004KT 10SM FEW250 14/08 A3031 RMK AO2 SLP265 T01440078 =
2017-10-18 17:52 METAR KNHK 182152Z 15005KT 10SM FEW250 17/10 A3031 RMK AO2 SLP263 T01720100 =
2017-10-18 16:52 METAR KNHK 182052Z 13007KT 10SM FEW250 19/08 A3032 RMK AO2 SLP266 T01890083
                 56012 =
2017-10-18 15:52 METAR KNHK 181952Z COR VRB04KT 10SM FEW250 20/04 A3033 RMK AO2 SLP269 T02000044
                 =
2017-10-18 14:52 METAR KNHK 181852Z VRB04KT 9SM CLR 20/04 A3034 RMK AO2 SLP273 T02000039 =

Support USWX by starting your Amazon purchase here.